sensor_id;sensor_type;location;lat;lon;timestamp;P1;durP1;ratioP1;P2;durP2;ratioP2
46561;SDS011;32289;42.688;23.330;2024-01-15T00:03:10;52.92;;;21.98;;
46561;SDS011;32289;42.688;23.330;2024-01-15T00:06:50;64.20;;;26.65;;
46561;SDS011;32289;42.688;23.330;2024-01-15T00:10:31;89.57;;;34.53;;
46561;SDS011;32289;42.688;23.330;2024-01-15T00:14:12;84.25;;;34.10;;
46561;SDS011;32289;42.688;23.330;2024-01-15T00:17:54;98.85;;;40.55;;
46561;SDS011;32289;42.688;23.330;2024-01-15T00:21:35;113.30;;;43.60;;
46561;SDS011;32289;42.688;23.330;2024-01-15T00:25:16;94.68;;;37.58;;
46561;SDS011;32289;42.688;23.330;2024-01-15T00:28:57;91.07;;;35.30;;
46561;SDS011;32289;42.688;23.330;2024-01-15T00:32:38;105.30;;;37.30;;
46561;SDS011;32289;42.688;23.330;2024-01-15T00:36:19;109.18;;;42.80;;
46561;SDS011;32289;42.688;23.330;2024-01-15T00:39:59;95.82;;;37.10;;
46561;SDS011;32289;42.688;23.330;2024-01-15T00:43:40;89.93;;;34.67;;
46561;SDS011;32289;42.688;23.330;2024-01-15T00:47:21;112.60;;;39.03;;
46561;SDS011;32289;42.688;23.330;2024-01-15T00:51:02;97.50;;;39.63;;
46561;SDS011;32289;42.688;23.330;2024-01-15T00:54:44;103.25;;;39.65;;
46561;SDS011;32289;42.688;23.330;2024-01-15T00:58:25;111.80;;;42.00;;
46561;SDS011;32289;42.688;23.330;2024-01-15T01:02:06;112.32;;;39.75;;
46561;SDS011;32289;42.688;23.330;2024-01-15T01:05:50;92.60;;;37.55;;
46561;SDS011;32289;42.688;23.330;2024-01-15T01:09:31;91.75;;;35.13;;
46561;SDS011;32289;42.688;23.330;2024-01-15T01:13:12;97.63;;;36.83;;
46561;SDS011;32289;42.688;23.330;2024-01-15T01:16:53;77.25;;;37.00;;
46561;SDS011;32289;42.688;23.330;2024-01-15T01:20:33;103.28;;;41.00;;
46561;SDS011;32289;42.688;23.330;2024-01-15T01:24:14;113.88;;;39.55;;
46561;SDS011;32289;42.688;23.330;2024-01-15T01:27:54;90.90;;;37.17;;
46561;SDS011;32289;42.688;23.330;2024-01-15T01:31:35;102.97;;;40.10;;
46561;SDS011;32289;42.688;23.330;2024-01-15T01:35:16;104.20;;;42.25;;
46561;SDS011;32289;42.688;23.330;2024-01-15T01:38:56;106.80;;;37.72;;
46561;SDS011;32289;42.688;23.330;2024-01-15T01:42:37;94.45;;;37.10;;
46561;SDS011;32289;42.688;23.330;2024-01-15T01:46:17;110.88;;;45.22;;
46561;SDS011;32289;42.688;23.330;2024-01-15T01:49:58;93.95;;;39.92;;
46561;SDS011;32289;42.688;23.330;2024-01-15T01:53:40;105.05;;;41.47;;
46561;SDS011;32289;42.688;23.330;2024-01-15T01:57:21;111.97;;;41.78;;
46561;SDS011;32289;42.688;23.330;2024-01-15T02:01:02;110.70;;;45.10;;
46561;SDS011;32289;42.688;23.330;2024-01-15T02:04:43;105.22;;;41.08;;
46561;SDS011;32289;42.688;23.330;2024-01-15T02:08:24;121.30;;;46.20;;
46561;SDS011;32289;42.688;23.330;2024-01-15T02:12:05;120.95;;;43.08;;
46561;SDS011;32289;42.688;23.330;2024-01-15T02:15:46;84.65;;;34.45;;
46561;SDS011;32289;42.688;23.330;2024-01-15T02:19:27;101.15;;;39.70;;
46561;SDS011;32289;42.688;23.330;2024-01-15T02:23:14;86.55;;;34.38;;
46561;SDS011;32289;42.688;23.330;2024-01-15T02:26:55;94.70;;;36.70;;
46561;SDS011;32289;42.688;23.330;2024-01-15T02:30:40;76.60;;;30.25;;
46561;SDS011;32289;42.688;23.330;2024-01-15T02:34:21;67.47;;;27.83;;
46561;SDS011;32289;42.688;23.330;2024-01-15T02:38:02;62.83;;;27.75;;
46561;SDS011;32289;42.688;23.330;2024-01-15T02:41:43;45.90;;;21.02;;
46561;SDS011;32289;42.688;23.330;2024-01-15T02:45:24;58.20;;;23.00;;
46561;SDS011;32289;42.688;23.330;2024-01-15T02:49:05;64.57;;;27.83;;
46561;SDS011;32289;42.688;23.330;2024-01-15T02:52:45;79.03;;;29.70;;
46561;SDS011;32289;42.688;23.330;2024-01-15T02:56:26;60.15;;;25.02;;
46561;SDS011;32289;42.688;23.330;2024-01-15T03:00:07;67.15;;;27.00;;
46561;SDS011;32289;42.688;23.330;2024-01-15T03:03:47;54.95;;;22.98;;
46561;SDS011;32289;42.688;23.330;2024-01-15T03:07:28;71.22;;;29.02;;
46561;SDS011;32289;42.688;23.330;2024-01-15T03:11:10;73.57;;;28.95;;
46561;SDS011;32289;42.688;23.330;2024-01-15T03:14:50;86.25;;;33.95;;
46561;SDS011;32289;42.688;23.330;2024-01-15T03:18:31;92.90;;;33.65;;
46561;SDS011;32289;42.688;23.330;2024-01-15T03:22:12;72.50;;;28.38;;
46561;SDS011;32289;42.688;23.330;2024-01-15T03:25:52;81.95;;;31.67;;
46561;SDS011;32289;42.688;23.330;2024-01-15T03:29:33;78.00;;;31.25;;
46561;SDS011;32289;42.688;23.330;2024-01-15T03:33:14;81.93;;;32.50;;
46561;SDS011;32289;42.688;23.330;2024-01-15T03:36:55;85.35;;;31.88;;
46561;SDS011;32289;42.688;23.330;2024-01-15T03:40:35;95.53;;;34.10;;
46561;SDS011;32289;42.688;23.330;2024-01-15T03:44:16;97.50;;;31.40;;
46561;SDS011;32289;42.688;23.330;2024-01-15T03:47:57;90.93;;;29.63;;
46561;SDS011;32289;42.688;23.330;2024-01-15T03:51:37;66.07;;;26.35;;
46561;SDS011;32289;42.688;23.330;2024-01-15T03:55:18;44.35;;;21.00;;
46561;SDS011;32289;42.688;23.330;2024-01-15T03:58:58;53.90;;;23.05;;
46561;SDS011;32289;42.688;23.330;2024-01-15T04:02:39;61.15;;;22.90;;
46561;SDS011;32289;42.688;23.330;2024-01-15T04:06:20;65.28;;;23.40;;
46561;SDS011;32289;42.688;23.330;2024-01-15T04:10:00;71.72;;;25.92;;
46561;SDS011;32289;42.688;23.330;2024-01-15T04:13:41;59.15;;;21.58;;
46561;SDS011;32289;42.688;23.330;2024-01-15T04:17:22;49.72;;;17.42;;
46561;SDS011;32289;42.688;23.330;2024-01-15T04:21:04;52.22;;;19.67;;
46561;SDS011;32289;42.688;23.330;2024-01-15T04:24:45;62.42;;;23.75;;
46561;SDS011;32289;42.688;23.330;2024-01-15T04:28:26;60.10;;;23.80;;
46561;SDS011;32289;42.688;23.330;2024-01-15T04:32:07;46.33;;;19.85;;
46561;SDS011;32289;42.688;23.330;2024-01-15T04:35:48;69.60;;;27.02;;
46561;SDS011;32289;42.688;23.330;2024-01-15T04:39:29;47.92;;;21.50;;
46561;SDS011;32289;42.688;23.330;2024-01-15T04:43:10;55.50;;;22.65;;
46561;SDS011;32289;42.688;23.330;2024-01-15T04:46:50;69.43;;;23.17;;
46561;SDS011;32289;42.688;23.330;2024-01-15T04:50:31;56.28;;;24.52;;
46561;SDS011;32289;42.688;23.330;2024-01-15T04:54:12;51.83;;;23.63;;
46561;SDS011;32289;42.688;23.330;2024-01-15T04:57:52;67.13;;;23.52;;
46561;SDS011;32289;42.688;23.330;2024-01-15T05:01:33;65.40;;;22.20;;
46561;SDS011;32289;42.688;23.330;2024-01-15T05:05:13;60.30;;;22.35;;
46561;SDS011;32289;42.688;23.330;2024-01-15T05:08:54;65.80;;;24.75;;
46561;SDS011;32289;42.688;23.330;2024-01-15T05:12:35;55.58;;;23.73;;
46561;SDS011;32289;42.688;23.330;2024-01-15T05:16:15;56.58;;;20.23;;
46561;SDS011;32289;42.688;23.330;2024-01-15T05:19:56;45.65;;;20.40;;
46561;SDS011;32289;42.688;23.330;2024-01-15T05:23:37;64.00;;;23.35;;
46561;SDS011;32289;42.688;23.330;2024-01-15T05:27:18;43.67;;;19.23;;
46561;SDS011;32289;42.688;23.330;2024-01-15T05:30:59;45.13;;;19.75;;
46561;SDS011;32289;42.688;23.330;2024-01-15T05:34:40;53.88;;;19.58;;
46561;SDS011;32289;42.688;23.330;2024-01-15T05:38:20;53.95;;;20.60;;
46561;SDS011;32289;42.688;23.330;2024-01-15T05:42:01;42.03;;;17.67;;
46561;SDS011;32289;42.688;23.330;2024-01-15T05:45:43;37.65;;;17.10;;
46561;SDS011;32289;42.688;23.330;2024-01-15T05:49:25;35.50;;;18.75;;
46561;SDS011;32289;42.688;23.330;2024-01-15T05:53:06;42.38;;;16.88;;
46561;SDS011;32289;42.688;23.330;2024-01-15T05:56:47;39.42;;;19.17;;
46561;SDS011;32289;42.688;23.330;2024-01-15T06:00:28;45.45;;;18.58;;
46561;SDS011;32289;42.688;23.330;2024-01-15T06:04:09;50.80;;;18.95;;
46561;SDS011;32289;42.688;23.330;2024-01-15T06:07:50;48.75;;;19.52;;
46561;SDS011;32289;42.688;23.330;2024-01-15T06:11:31;51.20;;;18.23;;
46561;SDS011;32289;42.688;23.330;2024-01-15T06:15:12;38.15;;;18.48;;
46561;SDS011;32289;42.688;23.330;2024-01-15T06:18:53;38.00;;;16.92;;
46561;SDS011;32289;42.688;23.330;2024-01-15T06:22:33;56.08;;;21.55;;
46561;SDS011;32289;42.688;23.330;2024-01-15T06:26:15;51.25;;;23.60;;
46561;SDS011;32289;42.688;23.330;2024-01-15T06:29:56;49.95;;;20.05;;
46561;SDS011;32289;42.688;23.330;2024-01-15T06:33:39;55.10;;;22.45;;
46561;SDS011;32289;42.688;23.330;2024-01-15T06:37:20;56.97;;;21.63;;
46561;SDS011;32289;42.688;23.330;2024-01-15T06:41:02;49.13;;;22.27;;
46561;SDS011;32289;42.688;23.330;2024-01-15T06:44:43;55.72;;;23.65;;
46561;SDS011;32289;42.688;23.330;2024-01-15T06:48:23;65.03;;;25.27;;
46561;SDS011;32289;42.688;23.330;2024-01-15T06:52:04;76.35;;;31.15;;
46561;SDS011;32289;42.688;23.330;2024-01-15T06:55:46;75.90;;;29.80;;
46561;SDS011;32289;42.688;23.330;2024-01-15T06:59:27;89.15;;;31.63;;
46561;SDS011;32289;42.688;23.330;2024-01-15T07:03:07;104.03;;;37.38;;
46561;SDS011;32289;42.688;23.330;2024-01-15T07:06:48;97.78;;;39.65;;
46561;SDS011;32289;42.688;23.330;2024-01-15T07:10:29;63.97;;;26.13;;
46561;SDS011;32289;42.688;23.330;2024-01-15T07:14:10;65.30;;;25.63;;
46561;SDS011;32289;42.688;23.330;2024-01-15T07:17:51;65.68;;;29.02;;
46561;SDS011;32289;42.688;23.330;2024-01-15T07:21:31;94.55;;;35.47;;
46561;SDS011;32289;42.688;23.330;2024-01-15T07:25:12;77.78;;;33.83;;
46561;SDS011;32289;42.688;23.330;2024-01-15T07:28:53;103.47;;;35.70;;
46561;SDS011;32289;42.688;23.330;2024-01-15T07:32:33;86.90;;;34.05;;
46561;SDS011;32289;42.688;23.330;2024-01-15T07:36:14;89.63;;;35.17;;
46561;SDS011;32289;42.688;23.330;2024-01-15T07:39:55;91.95;;;37.80;;
46561;SDS011;32289;42.688;23.330;2024-01-15T07:43:36;88.97;;;36.95;;
46561;SDS011;32289;42.688;23.330;2024-01-15T07:47:17;95.35;;;34.55;;
46561;SDS011;32289;42.688;23.330;2024-01-15T07:50:58;101.57;;;37.58;;
46561;SDS011;32289;42.688;23.330;2024-01-15T07:54:39;81.22;;;32.80;;
46561;SDS011;32289;42.688;23.330;2024-01-15T07:58:19;104.05;;;35.03;;
46561;SDS011;32289;42.688;23.330;2024-01-15T08:02:00;78.43;;;35.28;;
46561;SDS011;32289;42.688;23.330;2024-01-15T08:05:41;72.22;;;29.35;;
46561;SDS011;32289;42.688;23.330;2024-01-15T08:09:21;75.80;;;29.95;;
46561;SDS011;32289;42.688;23.330;2024-01-15T08:13:02;70.30;;;28.67;;
46561;SDS011;32289;42.688;23.330;2024-01-15T08:16:43;74.55;;;30.48;;
46561;SDS011;32289;42.688;23.330;2024-01-15T08:20:23;73.88;;;29.83;;
46561;SDS011;32289;42.688;23.330;2024-01-15T08:24:05;70.35;;;29.45;;
46561;SDS011;32289;42.688;23.330;2024-01-15T08:27:46;65.80;;;27.95;;
46561;SDS011;32289;42.688;23.330;2024-01-15T08:31:27;60.75;;;24.77;;
46561;SDS011;32289;42.688;23.330;2024-01-15T08:35:08;64.95;;;26.15;;
46561;SDS011;32289;42.688;23.330;2024-01-15T08:38:49;64.43;;;26.50;;
46561;SDS011;32289;42.688;23.330;2024-01-15T08:42:30;72.22;;;28.73;;
46561;SDS011;32289;42.688;23.330;2024-01-15T08:46:10;65.07;;;27.77;;
46561;SDS011;32289;42.688;23.330;2024-01-15T08:49:51;62.22;;;27.55;;
46561;SDS011;32289;42.688;23.330;2024-01-15T08:53:32;66.88;;;26.13;;
46561;SDS011;32289;42.688;23.330;2024-01-15T08:57:12;62.17;;;27.15;;
46561;SDS011;32289;42.688;23.330;2024-01-15T09:00:53;63.25;;;26.58;;
46561;SDS011;32289;42.688;23.330;2024-01-15T09:04:34;71.80;;;31.30;;
46561;SDS011;32289;42.688;23.330;2024-01-15T09:08:14;66.65;;;27.80;;
46561;SDS011;32289;42.688;23.330;2024-01-15T09:11:55;72.07;;;29.02;;
46561;SDS011;32289;42.688;23.330;2024-01-15T09:15:36;88.57;;;35.78;;
46561;SDS011;32289;42.688;23.330;2024-01-15T09:19:17;59.80;;;27.15;;
46561;SDS011;32289;42.688;23.330;2024-01-15T09:22:58;55.03;;;23.98;;
46561;SDS011;32289;42.688;23.330;2024-01-15T09:26:38;63.38;;;27.27;;
46561;SDS011;32289;42.688;23.330;2024-01-15T09:30:19;66.53;;;28.58;;
46561;SDS011;32289;42.688;23.330;2024-01-15T09:34:00;89.50;;;36.17;;
46561;SDS011;32289;42.688;23.330;2024-01-15T09:37:43;99.03;;;40.00;;
46561;SDS011;32289;42.688;23.330;2024-01-15T09:41:24;107.30;;;40.10;;
46561;SDS011;32289;42.688;23.330;2024-01-15T09:45:05;93.68;;;38.83;;
46561;SDS011;32289;42.688;23.330;2024-01-15T09:48:47;98.40;;;42.05;;
46561;SDS011;32289;42.688;23.330;2024-01-15T09:52:30;107.45;;;42.95;;
46561;SDS011;32289;42.688;23.330;2024-01-15T09:56:11;91.28;;;38.83;;
46561;SDS011;32289;42.688;23.330;2024-01-15T09:59:52;95.03;;;37.97;;
46561;SDS011;32289;42.688;23.330;2024-01-15T10:03:34;88.32;;;35.47;;
46561;SDS011;32289;42.688;23.330;2024-01-15T10:07:15;99.95;;;37.67;;
46561;SDS011;32289;42.688;23.330;2024-01-15T10:10:59;86.03;;;37.55;;
46561;SDS011;32289;42.688;23.330;2024-01-15T10:14:40;77.50;;;35.22;;
46561;SDS011;32289;42.688;23.330;2024-01-15T10:18:22;86.90;;;35.30;;
46561;SDS011;32289;42.688;23.330;2024-01-15T10:22:03;92.60;;;34.92;;
46561;SDS011;32289;42.688;23.330;2024-01-15T10:25:44;59.25;;;25.70;;
46561;SDS011;32289;42.688;23.330;2024-01-15T10:29:25;74.05;;;29.52;;
46561;SDS011;32289;42.688;23.330;2024-01-15T10:33:05;72.03;;;31.95;;
46561;SDS011;32289;42.688;23.330;2024-01-15T10:36:46;70.18;;;30.95;;
46561;SDS011;32289;42.688;23.330;2024-01-15T10:40:35;69.40;;;29.63;;
46561;SDS011;32289;42.688;23.330;2024-01-15T10:44:15;66.38;;;29.08;;
46561;SDS011;32289;42.688;23.330;2024-01-15T10:47:57;66.85;;;31.15;;
46561;SDS011;32289;42.688;23.330;2024-01-15T10:51:38;58.95;;;27.08;;
46561;SDS011;32289;42.688;23.330;2024-01-15T10:55:21;56.95;;;26.23;;
46561;SDS011;32289;42.688;23.330;2024-01-15T10:59:05;53.95;;;24.52;;
46561;SDS011;32289;42.688;23.330;2024-01-15T11:02:47;54.47;;;25.27;;
46561;SDS011;32289;42.688;23.330;2024-01-15T11:06:28;57.15;;;23.75;;
46561;SDS011;32289;42.688;23.330;2024-01-15T11:10:43;50.08;;;25.30;;
46561;SDS011;32289;42.688;23.330;2024-01-15T11:14:38;53.95;;;22.67;;
46561;SDS011;32289;42.688;23.330;2024-01-15T11:18:20;42.92;;;19.75;;
46561;SDS011;32289;42.688;23.330;2024-01-15T11:22:02;45.03;;;20.73;;
46561;SDS011;32289;42.688;23.330;2024-01-15T11:25:44;45.75;;;20.95;;
46561;SDS011;32289;42.688;23.330;2024-01-15T11:29:29;43.83;;;20.73;;
46561;SDS011;32289;42.688;23.330;2024-01-15T11:37:15;34.58;;;18.08;;
46561;SDS011;32289;42.688;23.330;2024-01-15T11:40:55;31.92;;;15.95;;
46561;SDS011;32289;42.688;23.330;2024-01-15T11:44:40;38.65;;;17.85;;
46561;SDS011;32289;42.688;23.330;2024-01-15T11:48:21;38.40;;;17.55;;
46561;SDS011;32289;42.688;23.330;2024-01-15T11:52:04;42.10;;;17.08;;
46561;SDS011;32289;42.688;23.330;2024-01-15T11:55:46;36.10;;;14.93;;
46561;SDS011;32289;42.688;23.330;2024-01-15T11:59:29;31.33;;;14.98;;
46561;SDS011;32289;42.688;23.330;2024-01-15T12:03:09;32.53;;;15.13;;
46561;SDS011;32289;42.688;23.330;2024-01-15T12:06:50;32.85;;;13.98;;
46561;SDS011;32289;42.688;23.330;2024-01-15T12:10:31;30.40;;;15.07;;
46561;SDS011;32289;42.688;23.330;2024-01-15T12:14:12;30.05;;;13.50;;
46561;SDS011;32289;42.688;23.330;2024-01-15T12:17:54;29.73;;;13.82;;
46561;SDS011;32289;42.688;23.330;2024-01-15T12:21:38;37.70;;;14.05;;
46561;SDS011;32289;42.688;23.330;2024-01-15T12:25:25;32.55;;;13.27;;
46561;SDS011;32289;42.688;23.330;2024-01-15T12:29:09;31.27;;;14.35;;
46561;SDS011;32289;42.688;23.330;2024-01-15T12:32:52;47.88;;;15.75;;
46561;SDS011;32289;42.688;23.330;2024-01-15T12:36:33;35.92;;;14.20;;
46561;SDS011;32289;42.688;23.330;2024-01-15T12:40:17;39.05;;;15.07;;
46561;SDS011;32289;42.688;23.330;2024-01-15T12:43:59;30.35;;;14.43;;
46561;SDS011;32289;42.688;23.330;2024-01-15T12:47:40;31.50;;;14.68;;
46561;SDS011;32289;42.688;23.330;2024-01-15T12:51:25;30.42;;;13.88;;
46561;SDS011;32289;42.688;23.330;2024-01-15T12:55:10;32.75;;;15.50;;
46561;SDS011;32289;42.688;23.330;2024-01-15T12:58:53;33.40;;;14.55;;
46561;SDS011;32289;42.688;23.330;2024-01-15T13:02:34;40.17;;;14.73;;
46561;SDS011;32289;42.688;23.330;2024-01-15T13:06:15;38.78;;;14.75;;
46561;SDS011;32289;42.688;23.330;2024-01-15T13:09:56;41.10;;;14.68;;
46561;SDS011;32289;42.688;23.330;2024-01-15T13:13:37;48.85;;;18.45;;
46561;SDS011;32289;42.688;23.330;2024-01-15T13:17:18;37.28;;;15.35;;
46561;SDS011;32289;42.688;23.330;2024-01-15T13:21:00;38.10;;;15.50;;
46561;SDS011;32289;42.688;23.330;2024-01-15T13:24:42;32.58;;;15.40;;
46561;SDS011;32289;42.688;23.330;2024-01-15T13:28:23;37.38;;;14.90;;
46561;SDS011;32289;42.688;23.330;2024-01-15T13:32:06;35.80;;;14.30;;
46561;SDS011;32289;42.688;23.330;2024-01-15T13:35:51;38.38;;;16.45;;
46561;SDS011;32289;42.688;23.330;2024-01-15T13:39:31;34.75;;;15.65;;
46561;SDS011;32289;42.688;23.330;2024-01-15T13:43:13;36.80;;;15.82;;
46561;SDS011;32289;42.688;23.330;2024-01-15T13:46:54;40.97;;;16.73;;
46561;SDS011;32289;42.688;23.330;2024-01-15T13:50:35;34.55;;;16.50;;
46561;SDS011;32289;42.688;23.330;2024-01-15T13:54:16;47.00;;;17.08;;
46561;SDS011;32289;42.688;23.330;2024-01-15T13:57:57;40.90;;;16.55;;
46561;SDS011;32289;42.688;23.330;2024-01-15T14:01:38;35.60;;;16.50;;
46561;SDS011;32289;42.688;23.330;2024-01-15T14:05:19;37.08;;;15.77;;
46561;SDS011;32289;42.688;23.330;2024-01-15T14:09:00;42.80;;;18.25;;
46561;SDS011;32289;42.688;23.330;2024-01-15T14:12:40;37.33;;;15.00;;
46561;SDS011;32289;42.688;23.330;2024-01-15T14:16:21;46.00;;;15.45;;
46561;SDS011;32289;42.688;23.330;2024-01-15T14:20:02;41.10;;;15.88;;
46561;SDS011;32289;42.688;23.330;2024-01-15T14:23:45;43.13;;;16.15;;
46561;SDS011;32289;42.688;23.330;2024-01-15T14:27:26;43.22;;;17.42;;
46561;SDS011;32289;42.688;23.330;2024-01-15T14:31:06;40.00;;;16.92;;
46561;SDS011;32289;42.688;23.330;2024-01-15T14:34:47;52.75;;;17.70;;
46561;SDS011;32289;42.688;23.330;2024-01-15T14:38:29;43.60;;;17.08;;
46561;SDS011;32289;42.688;23.330;2024-01-15T14:42:09;39.25;;;16.75;;
46561;SDS011;32289;42.688;23.330;2024-01-15T14:45:51;45.60;;;18.70;;
46561;SDS011;32289;42.688;23.330;2024-01-15T14:49:31;36.03;;;15.02;;
46561;SDS011;32289;42.688;23.330;2024-01-15T14:53:13;41.95;;;15.48;;
46561;SDS011;32289;42.688;23.330;2024-01-15T14:56:54;42.42;;;14.68;;
46561;SDS011;32289;42.688;23.330;2024-01-15T15:00:36;42.00;;;16.30;;
46561;SDS011;32289;42.688;23.330;2024-01-15T15:04:17;37.80;;;14.60;;
46561;SDS011;32289;42.688;23.330;2024-01-15T15:07:58;32.25;;;14.95;;
46561;SDS011;32289;42.688;23.330;2024-01-15T15:11:39;32.92;;;14.55;;
46561;SDS011;32289;42.688;23.330;2024-01-15T15:15:20;43.67;;;16.05;;
46561;SDS011;32289;42.688;23.330;2024-01-15T15:19:01;42.28;;;16.45;;
46561;SDS011;32289;42.688;23.330;2024-01-15T15:22:41;49.15;;;17.63;;
46561;SDS011;32289;42.688;23.330;2024-01-15T15:26:22;41.72;;;18.02;;
46561;SDS011;32289;42.688;23.330;2024-01-15T15:30:03;39.53;;;15.75;;
46561;SDS011;32289;42.688;23.330;2024-01-15T15:33:44;42.08;;;18.52;;
46561;SDS011;32289;42.688;23.330;2024-01-15T15:37:25;45.92;;;16.35;;
46561;SDS011;32289;42.688;23.330;2024-01-15T15:41:06;40.72;;;17.73;;
46561;SDS011;32289;42.688;23.330;2024-01-15T15:44:47;47.58;;;15.85;;
46561;SDS011;32289;42.688;23.330;2024-01-15T15:48:30;43.28;;;16.80;;
46561;SDS011;32289;42.688;23.330;2024-01-15T15:52:11;43.30;;;18.70;;
46561;SDS011;32289;42.688;23.330;2024-01-15T15:55:52;69.18;;;25.77;;
46561;SDS011;32289;42.688;23.330;2024-01-15T15:59:33;41.70;;;19.10;;
46561;SDS011;32289;42.688;23.330;2024-01-15T16:03:14;51.80;;;21.42;;
46561;SDS011;32289;42.688;23.330;2024-01-15T16:06:55;51.67;;;20.52;;
46561;SDS011;32289;42.688;23.330;2024-01-15T16:10:36;52.80;;;21.10;;
46561;SDS011;32289;42.688;23.330;2024-01-15T16:14:17;46.47;;;20.08;;
46561;SDS011;32289;42.688;23.330;2024-01-15T16:17:58;52.60;;;21.27;;
46561;SDS011;32289;42.688;23.330;2024-01-15T16:21:42;54.92;;;21.27;;
46561;SDS011;32289;42.688;23.330;2024-01-15T16:25:23;44.10;;;20.25;;
46561;SDS011;32289;42.688;23.330;2024-01-15T16:29:04;66.43;;;22.80;;
46561;SDS011;32289;42.688;23.330;2024-01-15T16:32:45;59.42;;;23.95;;
46561;SDS011;32289;42.688;23.330;2024-01-15T16:36:26;54.85;;;21.95;;
46561;SDS011;32289;42.688;23.330;2024-01-15T16:40:08;55.25;;;20.33;;
46561;SDS011;32289;42.688;23.330;2024-01-15T16:43:49;61.63;;;20.58;;
46561;SDS011;32289;42.688;23.330;2024-01-15T16:47:30;53.78;;;22.73;;
46561;SDS011;32289;42.688;23.330;2024-01-15T16:51:11;57.92;;;21.60;;
46561;SDS011;32289;42.688;23.330;2024-01-15T16:54:52;62.28;;;23.42;;
46561;SDS011;32289;42.688;23.330;2024-01-15T16:58:32;55.63;;;22.80;;
46561;SDS011;32289;42.688;23.330;2024-01-15T17:02:14;62.47;;;24.45;;
46561;SDS011;32289;42.688;23.330;2024-01-15T17:05:55;62.13;;;22.75;;
46561;SDS011;32289;42.688;23.330;2024-01-15T17:09:36;80.40;;;24.58;;
46561;SDS011;32289;42.688;23.330;2024-01-15T17:13:18;59.58;;;22.77;;
46561;SDS011;32289;42.688;23.330;2024-01-15T17:17:01;56.33;;;21.88;;
46561;SDS011;32289;42.688;23.330;2024-01-15T17:20:42;65.53;;;25.35;;
46561;SDS011;32289;42.688;23.330;2024-01-15T17:24:26;63.08;;;24.08;;
46561;SDS011;32289;42.688;23.330;2024-01-15T17:28:08;62.10;;;23.65;;
46561;SDS011;32289;42.688;23.330;2024-01-15T17:31:49;66.97;;;27.35;;
46561;SDS011;32289;42.688;23.330;2024-01-15T17:35:30;66.47;;;25.95;;
46561;SDS011;32289;42.688;23.330;2024-01-15T17:39:20;69.55;;;27.08;;
46561;SDS011;32289;42.688;23.330;2024-01-15T17:43:02;57.60;;;24.92;;
46561;SDS011;32289;42.688;23.330;2024-01-15T17:46:42;52.20;;;23.38;;
46561;SDS011;32289;42.688;23.330;2024-01-15T17:50:54;61.00;;;24.25;;
46561;SDS011;32289;42.688;23.330;2024-01-15T17:54:34;67.20;;;24.15;;
46561;SDS011;32289;42.688;23.330;2024-01-15T17:58:15;67.68;;;27.30;;
46561;SDS011;32289;42.688;23.330;2024-01-15T18:01:56;61.17;;;23.63;;
46561;SDS011;32289;42.688;23.330;2024-01-15T18:05:37;71.03;;;23.33;;
46561;SDS011;32289;42.688;23.330;2024-01-15T18:09:18;62.50;;;24.23;;
46561;SDS011;32289;42.688;23.330;2024-01-15T18:12:59;70.18;;;26.27;;
46561;SDS011;32289;42.688;23.330;2024-01-15T18:16:40;58.40;;;22.95;;
46561;SDS011;32289;42.688;23.330;2024-01-15T18:20:20;61.38;;;24.90;;
46561;SDS011;32289;42.688;23.330;2024-01-15T18:24:01;49.13;;;21.80;;
46561;SDS011;32289;42.688;23.330;2024-01-15T18:27:42;50.45;;;23.35;;
46561;SDS011;32289;42.688;23.330;2024-01-15T18:31:23;65.80;;;23.45;;
46561;SDS011;32289;42.688;23.330;2024-01-15T18:35:04;62.67;;;22.35;;
46561;SDS011;32289;42.688;23.330;2024-01-15T18:38:45;55.10;;;22.35;;
46561;SDS011;32289;42.688;23.330;2024-01-15T18:42:25;52.05;;;22.10;;
46561;SDS011;32289;42.688;23.330;2024-01-15T18:46:07;59.40;;;23.13;;
46561;SDS011;32289;42.688;23.330;2024-01-15T18:49:47;51.83;;;19.52;;
46561;SDS011;32289;42.688;23.330;2024-01-15T18:53:28;50.47;;;20.33;;
46561;SDS011;32289;42.688;23.330;2024-01-15T18:57:09;61.13;;;22.83;;
46561;SDS011;32289;42.688;23.330;2024-01-15T19:00:50;52.92;;;21.50;;
46561;SDS011;32289;42.688;23.330;2024-01-15T19:04:30;56.80;;;21.02;;
46561;SDS011;32289;42.688;23.330;2024-01-15T19:08:11;50.22;;;20.33;;
46561;SDS011;32289;42.688;23.330;2024-01-15T19:11:51;44.63;;;19.63;;
46561;SDS011;32289;42.688;23.330;2024-01-15T19:15:32;50.15;;;21.25;;
46561;SDS011;32289;42.688;23.330;2024-01-15T19:19:13;59.58;;;21.75;;
46561;SDS011;32289;42.688;23.330;2024-01-15T19:22:54;52.17;;;20.83;;
46561;SDS011;32289;42.688;23.330;2024-01-15T19:26:35;44.67;;;14.77;;
46561;SDS011;32289;42.688;23.330;2024-01-15T19:30:15;41.63;;;15.73;;
46561;SDS011;32289;42.688;23.330;2024-01-15T19:33:56;44.35;;;17.98;;
46561;SDS011;32289;42.688;23.330;2024-01-15T19:37:37;35.25;;;15.88;;
46561;SDS011;32289;42.688;23.330;2024-01-15T19:41:18;34.00;;;14.00;;
46561;SDS011;32289;42.688;23.330;2024-01-15T19:44:59;28.70;;;12.38;;
46561;SDS011;32289;42.688;23.330;2024-01-15T19:48:39;31.02;;;13.75;;
46561;SDS011;32289;42.688;23.330;2024-01-15T19:52:20;27.73;;;12.35;;
46561;SDS011;32289;42.688;23.330;2024-01-15T19:56:01;24.55;;;11.77;;
46561;SDS011;32289;42.688;23.330;2024-01-15T19:59:42;34.17;;;12.45;;
46561;SDS011;32289;42.688;23.330;2024-01-15T20:03:22;27.73;;;11.73;;
46561;SDS011;32289;42.688;23.330;2024-01-15T20:07:03;39.78;;;13.68;;
46561;SDS011;32289;42.688;23.330;2024-01-15T20:10:44;31.20;;;13.18;;
46561;SDS011;32289;42.688;23.330;2024-01-15T20:14:25;32.60;;;13.38;;
46561;SDS011;32289;42.688;23.330;2024-01-15T20:18:07;29.77;;;12.65;;
46561;SDS011;32289;42.688;23.330;2024-01-15T20:21:48;25.90;;;11.68;;
46561;SDS011;32289;42.688;23.330;2024-01-15T20:25:28;22.23;;;10.15;;
46561;SDS011;32289;42.688;23.330;2024-01-15T20:29:09;24.60;;;11.18;;
46561;SDS011;32289;42.688;23.330;2024-01-15T20:32:50;34.17;;;11.82;;
46561;SDS011;32289;42.688;23.330;2024-01-15T20:36:31;32.00;;;11.68;;
46561;SDS011;32289;42.688;23.330;2024-01-15T20:40:27;31.17;;;13.57;;
46561;SDS011;32289;42.688;23.330;2024-01-15T20:44:10;34.25;;;11.32;;
46561;SDS011;32289;42.688;23.330;2024-01-15T20:47:51;30.23;;;11.38;;
46561;SDS011;32289;42.688;23.330;2024-01-15T20:51:32;27.65;;;11.45;;
46561;SDS011;32289;42.688;23.330;2024-01-15T20:55:12;24.70;;;10.88;;
46561;SDS011;32289;42.688;23.330;2024-01-15T20:58:53;15.13;;;7.32;;
46561;SDS011;32289;42.688;23.330;2024-01-15T21:02:35;21.13;;;9.45;;
46561;SDS011;32289;42.688;23.330;2024-01-15T21:06:17;18.27;;;7.72;;
46561;SDS011;32289;42.688;23.330;2024-01-15T21:09:59;17.25;;;6.70;;
46561;SDS011;32289;42.688;23.330;2024-01-15T21:13:40;16.83;;;7.95;;
46561;SDS011;32289;42.688;23.330;2024-01-15T21:17:21;18.85;;;7.35;;
46561;SDS011;32289;42.688;23.330;2024-01-15T21:21:03;22.05;;;8.15;;